Airfield :
LOGIN :

Register | Disclaimer

   EN    FR    IT 

 










Legend :    VFR   Marginal VFR   IFR   Intensive IFR   Very Intensive IFR
Visi :
Ceiling :
>= 8 km
>= 3000ft
5 to 8 km
1000 to 3000 ft
1500m to 5 km
500 to 1000 ft
800 to 1500m
200 to 500 ft
< 800m
< 200 ft
Symbols :   Thunderstorms  Fog  Heavy snow  Heavy precipitations  Wind > 20 kt
SIGMETs :     Misc.  Thunderstorms  Icing  Turbulence  Mountain Waves  Volcanic Ashes






- Airport Elevation : 49 ft
- IATA code : GLZ


EHGR - Gilze-Rijen Airbase

CURRENT METAR :
  • 281529Z AUTO 34003KT 320V030 2300 +DZ FEW002 SCT003 BKN004 07/07 Q1001 YLO

EXPIRED METARs :
  • 281525Z AUTO 35003KT 320V030 2600 BR BKN002 OVC003 07/07 Q1001 AMB
  • 281505Z AUTO 01004KT 350V060 5000 BR BKN003 OVC006 07/07 Q1000 YLO
  • 281455Z AUTO 34003KT 300V030 7000 BR BKN002 BKN003 OVC005 08/07 Q1000 AMB
  • 281451Z AUTO VRB02KT 8000 BR BKN002 BKN003 OVC006 08/07 Q1000 AMB TEMPO 2500 DZRA BR BKN002 BKN004
  • 281435Z AUTO 01003KT 350V060 3200 BR SCT002 BKN005 BKN006 08/08 Q1000 AMB TEMPO 2500 DZRA BR BKN002 BKN004
  • 281425Z AUTO 36003KT 320V040 2800 BR SCT002 BKN003 BKN004 08/07 Q1000 REDZ AMB TEMPO 2500 DZRA BR BKN002 BKN004
  • 281419Z AUTO VRB02KT 3000 BR SCT002 BKN004 BKN005 08/07 Q1000 AMB TEMPO 2500 DZRA BR BKN002 BKN004
  • 281355Z AUTO 01003KT 320V090 2800 DZ BKN002 BKN005 OVC007 08/07 Q0999 AMB TEMPO 2500 DZRA BR BKN002 BKN004
  • 281325Z AUTO 04003KT 340V080 4100 DZ SCT002 BKN003 OVC005 07/07 Q0999 AMB TEMPO 2500 DZRA BR BKN002 BKN004
  • 281259Z AUTO VRB02KT 2800 DZ BKN002 OVC003 07/07 Q0999 AMB TEMPO 2500 DZRA BR BKN002 BKN004
  • 281255Z AUTO 01002KT 2400 +DZ OVC001 07/07 Q0999 RERA REDZ RED TEMPO 2500 DZRA BR BKN002 BKN004

TAF TAF EHGR
Valid from the 28 at 14:00 until the 29 at 02:00 UTC


281333Z 2814/2902 VRB03KT 6000 SCT005 BKN015
TEMPO 2814/2902 3000 RADZ SCT004 BKN006
PROB40
TEMPO 2814/2821 2000 DZRA SCT002 BKN004
BECMG 2821/2823 21007KT
PROB40
TEMPO 2821/2824 SCT020 BKN030



MET'MAP, your aeronautical weather chart ! - Copyright ORBIFLY December 2007 - Disclaimer

ORBIFLY MET'MAP TEAM :

Programming & Development : Alexandra Zaïnal
Concept & original design : Baudouin d'Aumeries
Assistance for programming : Marc-Olivier Méhu
Technical & hardware support : Manuel Goepfert

Contact : metmap@orbifly.com




SOURCES & CREDITS :

   NOAA